Time;durP1;ratioP1;P1;durP2;ratioP2;P2;SDS_P1;SDS_P2;PMS_P1;PMS_P2;Temp;Humidity;BMP_temperature;BMP_pressure;BME280_temperature;BME280_humidity;BME280_pressure;Samples;Min_cycle;Max_cycle;Signal;HPM_P1;HPM_P2
2024/01/25 00:00:33;;;;;;;24.77;7.15;;;7.00;99.90;;;;;;5118365;27;20112;-69
2024/01/25 00:03:00;;;;;;;30.20;6.82;;;7.10;99.90;;;;;;5136521;27;20099;-70
2024/01/25 00:05:26;;;;;;;33.83;7.85;;;7.10;99.90;;;;;;5098651;27;20043;-70
2024/01/25 00:07:53;;;;;;;26.35;6.57;;;7.10;99.90;;;;;;5100517;27;20051;-69
2024/01/25 00:10:22;;;;;;;27.65;6.85;;;7.10;99.90;;;;;;5117935;27;20449;-69
2024/01/25 00:12:49;;;;;;;24.80;7.20;;;7.00;99.90;;;;;;5117480;27;20047;-70
2024/01/25 00:15:16;;;;;;;25.13;7.10;;;7.00;99.90;;;;;;5100682;27;20051;-70
2024/01/25 00:17:43;;;;;;;29.88;8.70;;;6.90;99.90;;;;;;5098932;27;20096;-69
2024/01/25 00:20:11;;;;;;;24.63;6.65;;;6.90;99.90;;;;;;5099458;27;20563;-69
2024/01/25 00:22:38;;;;;;;28.67;8.20;;;6.80;99.90;;;;;;5115839;27;20100;-70
2024/01/25 00:25:06;;;;;;;25.90;7.25;;;6.80;99.90;;;;;;5133912;27;20486;-70
2024/01/25 00:27:34;;;;;;;25.80;7.05;;;6.80;99.90;;;;;;5100068;27;20051;-71
2024/01/25 00:30:01;;;;;;;34.92;8.13;;;6.70;99.90;;;;;;5098979;27;20062;-70
2024/01/25 00:32:28;;;;;;;24.67;7.22;;;6.80;99.90;;;;;;5116542;27;20056;-71
2024/01/25 00:34:55;;;;;;;27.23;6.75;;;6.60;99.90;;;;;;5099246;27;20048;-70
2024/01/25 00:37:23;;;;;;;36.47;7.90;;;6.50;99.90;;;;;;5099178;27;20060;-70
2024/01/25 00:39:50;;;;;;;27.90;7.22;;;6.50;99.90;;;;;;5099536;27;20104;-70
2024/01/25 00:42:20;;;;;;;23.73;7.10;;;6.50;99.90;;;;;;5098080;27;20126;-70
2024/01/25 00:44:49;;;;;;;24.98;7.43;;;6.40;99.90;;;;;;5098768;27;20058;-70
2024/01/25 00:47:17;;;;;;;32.00;7.90;;;6.30;99.90;;;;;;5099124;27;20095;-70
2024/01/25 00:49:44;;;;;;;31.08;8.32;;;6.20;99.90;;;;;;5098338;27;20425;-70
2024/01/25 00:52:12;;;;;;;34.55;8.30;;;6.20;99.90;;;;;;5098869;27;20097;-70
2024/01/25 00:54:40;;;;;;;26.33;8.20;;;6.20;99.90;;;;;;5117022;27;20540;-70
2024/01/25 00:57:08;;;;;;;28.42;6.60;;;6.10;99.90;;;;;;5116294;27;20100;-70
2024/01/25 00:59:35;;;;;;;28.17;7.03;;;6.10;99.90;;;;;;5099296;27;20060;-69
2024/01/25 01:02:06;;;;;;;29.63;7.30;;;6.00;99.90;;;;;;5116206;27;20070;-69
2024/01/25 01:04:33;;;;;;;27.55;7.40;;;6.00;99.90;;;;;;5117211;27;20088;-69
2024/01/25 01:07:00;;;;;;;33.88;7.93;;;6.00;99.90;;;;;;5099323;27;20572;-69
2024/01/25 01:09:27;;;;;;;33.47;8.32;;;6.00;99.90;;;;;;5097350;27;20503;-69
2024/01/25 01:11:54;;;;;;;28.42;7.82;;;6.00;99.90;;;;;;5098629;27;20039;-69
2024/01/25 01:14:21;;;;;;;30.55;7.45;;;6.00;99.90;;;;;;5114862;27;20066;-68
2024/01/25 01:16:48;;;;;;;29.33;8.18;;;5.90;99.90;;;;;;5098026;27;20124;-69
2024/01/25 01:19:16;;;;;;;26.25;7.63;;;5.90;99.90;;;;;;5099265;27;20043;-69
2024/01/25 01:21:43;;;;;;;24.48;7.80;;;5.90;99.90;;;;;;5098017;27;20447;-69
2024/01/25 01:24:10;;;;;;;25.25;7.43;;;5.90;99.90;;;;;;5097969;27;20047;-70
2024/01/25 01:26:38;;;;;;;26.13;7.28;;;5.90;99.90;;;;;;5099540;27;20047;-69
2024/01/25 01:29:05;;;;;;;28.48;7.78;;;5.90;99.90;;;;;;5097269;27;20097;-69
2024/01/25 01:31:32;;;;;;;29.15;7.13;;;5.90;99.90;;;;;;5098583;27;20084;-69
2024/01/25 01:33:59;;;;;;;29.98;7.03;;;5.90;99.90;;;;;;5097138;27;20100;-70
2024/01/25 01:36:27;;;;;;;33.50;8.27;;;5.90;99.90;;;;;;5097935;27;20048;-69
2024/01/25 01:38:54;;;;;;;27.63;7.40;;;5.80;99.90;;;;;;5114490;27;20055;-69
2024/01/25 01:41:21;;;;;;;21.98;6.65;;;5.90;99.90;;;;;;5097830;27;20085;-68
2024/01/25 01:43:48;;;;;;;31.90;7.88;;;5.80;99.90;;;;;;5098311;27;20047;-70
2024/01/25 01:46:30;;;;;;;34.10;7.95;;;5.80;99.90;;;;;;5097513;27;20065;-70
2024/01/25 01:48:57;;;;;;;31.20;7.78;;;5.80;99.90;;;;;;5098775;27;20052;-70
2024/01/25 01:51:24;;;;;;;29.30;7.07;;;5.70;99.90;;;;;;5096701;27;20055;-70
2024/01/25 01:53:54;;;;;;;39.22;8.05;;;5.70;99.90;;;;;;5098252;27;20457;-70
2024/01/25 01:56:21;;;;;;;27.37;7.60;;;5.70;99.90;;;;;;5114364;27;20051;-70
2024/01/25 01:58:49;;;;;;;36.22;8.70;;;5.80;99.90;;;;;;5115445;27;20039;-70
2024/01/25 02:01:16;;;;;;;24.70;6.32;;;5.80;99.90;;;;;;5098052;27;20052;-69
2024/01/25 02:03:43;;;;;;;28.77;7.22;;;5.70;99.90;;;;;;5113771;27;20490;-68
2024/01/25 02:06:10;;;;;;;25.50;7.03;;;5.80;99.90;;;;;;5096932;27;20093;-69
2024/01/25 02:08:37;;;;;;;23.15;7.22;;;5.70;99.90;;;;;;5098639;27;20112;-69
2024/01/25 02:11:05;;;;;;;38.28;8.10;;;5.70;99.90;;;;;;5096420;27;20405;-69
2024/01/25 02:13:32;;;;;;;25.67;7.55;;;5.70;99.90;;;;;;5097833;27;20445;-69
2024/01/25 02:15:59;;;;;;;30.48;8.60;;;5.70;99.90;;;;;;5113366;27;20043;-69
2024/01/25 02:18:26;;;;;;;27.33;7.10;;;5.70;99.90;;;;;;5096578;27;20051;-69
2024/01/25 02:20:53;;;;;;;28.88;6.18;;;5.80;99.90;;;;;;5098876;27;20092;-70
2024/01/25 02:23:21;;;;;;;29.08;8.02;;;5.70;99.90;;;;;;5097174;27;20441;-70
2024/01/25 02:25:48;;;;;;;40.63;9.80;;;5.70;99.90;;;;;;5097788;27;20048;-70
2024/01/25 02:28:15;;;;;;;27.33;8.07;;;5.70;99.90;;;;;;5096785;27;20054;-69
2024/01/25 02:30:42;;;;;;;32.72;7.43;;;5.60;99.90;;;;;;5097655;27;20501;-69
2024/01/25 02:33:09;;;;;;;39.05;8.10;;;5.60;99.90;;;;;;5095791;27;20055;-69
2024/01/25 02:35:36;;;;;;;38.92;7.65;;;5.60;99.90;;;;;;5097350;27;20048;-69
2024/01/25 02:38:03;;;;;;;32.70;8.18;;;5.60;99.90;;;;;;5112970;27;20050;-69
2024/01/25 02:40:31;;;;;;;36.03;8.50;;;5.60;99.90;;;;;;5114781;27;20443;-69
2024/01/25 02:42:58;;;;;;;39.08;7.90;;;5.50;99.90;;;;;;5113334;27;20089;-70
2024/01/25 02:45:25;;;;;;;33.65;9.23;;;5.50;99.90;;;;;;5096465;27;20055;-69
2024/01/25 02:47:51;;;;;;;32.38;8.63;;;5.60;99.90;;;;;;5097142;27;20043;-69
2024/01/25 02:50:18;;;;;;;28.80;8.35;;;5.40;99.90;;;;;;5096141;27;20043;-70
2024/01/25 02:52:45;;;;;;;26.70;7.18;;;5.40;99.90;;;;;;5096691;27;20437;-69
2024/01/25 02:55:12;;;;;;;32.83;8.07;;;5.30;99.90;;;;;;5148081;27;20391;-69
2024/01/25 02:57:41;;;;;;;38.55;9.07;;;5.40;99.90;;;;;;5133635;27;20075;-70
2024/01/25 03:00:09;;;;;;;29.08;8.93;;;5.30;99.90;;;;;;5134425;27;20451;-70
2024/01/25 03:02:36;;;;;;;29.05;7.80;;;5.20;99.90;;;;;;5112024;27;20119;-70
2024/01/25 03:05:03;;;;;;;30.65;8.13;;;5.20;99.90;;;;;;5096999;27;20051;-69
2024/01/25 03:07:30;;;;;;;38.83;8.65;;;5.20;99.90;;;;;;5097483;27;20104;-69
2024/01/25 03:09:57;;;;;;;34.38;10.25;;;5.20;99.90;;;;;;5096471;27;20047;-69
2024/01/25 03:12:23;;;;;;;32.88;9.52;;;5.10;99.90;;;;;;5113646;27;20044;-70
2024/01/25 03:14:52;;;;;;;34.05;7.85;;;5.10;99.90;;;;;;5095358;27;20055;-69
2024/01/25 03:17:19;;;;;;;42.28;9.27;;;5.10;99.90;;;;;;5096653;27;20043;-69
2024/01/25 03:19:47;;;;;;;40.97;9.65;;;5.10;99.90;;;;;;5095720;27;20100;-69
2024/01/25 03:22:14;;;;;;;33.85;8.63;;;5.10;99.90;;;;;;5095600;27;20586;-70
2024/01/25 03:24:41;;;;;;;34.60;9.80;;;5.10;99.90;;;;;;5097387;27;20104;-69
2024/01/25 03:27:12;;;;;;;38.28;9.27;;;5.10;99.90;;;;;;5095936;27;20380;-70
2024/01/25 03:29:42;;;;;;;32.00;8.80;;;5.00;99.90;;;;;;5095381;27;20054;-70
2024/01/25 03:32:12;;;;;;;30.20;8.10;;;5.00;99.90;;;;;;5096503;27;20048;-70
2024/01/25 03:34:39;;;;;;;33.00;9.48;;;5.00;99.90;;;;;;5112494;28;20039;-70
2024/01/25 03:37:06;;;;;;;32.20;8.93;;;5.00;99.90;;;;;;5095932;27;20733;-70
2024/01/25 03:39:32;;;;;;;37.13;9.27;;;4.90;99.90;;;;;;5096933;27;20558;-70
2024/01/25 03:42:00;;;;;;;28.65;9.68;;;4.90;99.90;;;;;;5095655;27;20491;-70
2024/01/25 03:44:27;;;;;;;42.95;9.73;;;4.90;99.90;;;;;;5096093;27;20043;-70
2024/01/25 03:46:53;;;;;;;40.42;8.75;;;4.90;99.90;;;;;;5095508;27;20047;-70
2024/01/25 03:49:22;;;;;;;36.67;8.93;;;4.80;99.90;;;;;;5096490;27;20051;-70
2024/01/25 03:51:50;;;;;;;51.15;10.00;;;4.80;99.90;;;;;;5111738;28;20039;-70
2024/01/25 03:54:17;;;;;;;40.08;9.50;;;4.80;99.90;;;;;;5127403;27;21103;-70
2024/01/25 03:56:44;;;;;;;35.33;8.25;;;4.80;99.90;;;;;;5095664;27;20059;-70
2024/01/25 03:59:13;;;;;;;35.08;9.23;;;4.70;99.90;;;;;;5095132;27;20052;-70
2024/01/25 04:01:44;;;;;;;42.05;10.02;;;4.70;99.90;;;;;;5095916;27;20461;-70
2024/01/25 04:04:12;;;;;;;35.85;8.65;;;4.70;99.90;;;;;;5095626;27;20466;-70
2024/01/25 04:06:43;;;;;;;35.17;8.60;;;4.60;99.90;;;;;;5112135;28;20043;-69
2024/01/25 04:09:10;;;;;;;24.70;8.07;;;4.60;99.90;;;;;;5096166;27;20040;-70
2024/01/25 04:11:37;;;;;;;33.15;9.50;;;4.60;99.90;;;;;;5099252;27;20043;-69
2024/01/25 04:14:04;;;;;;;33.63;8.30;;;4.60;99.90;;;;;;5133317;27;20051;-71
2024/01/25 04:16:32;;;;;;;31.58;8.40;;;4.60;99.90;;;;;;5137267;27;20465;-68
2024/01/25 04:18:59;;;;;;;28.85;8.00;;;4.70;99.90;;;;;;5136563;27;20498;-68
2024/01/25 04:21:27;;;;;;;41.50;9.32;;;4.70;99.90;;;;;;5137138;27;20046;-70
2024/01/25 04:23:56;;;;;;;37.83;9.30;;;4.60;99.90;;;;;;5137080;27;20436;-69
2024/01/25 04:26:23;;;;;;;43.80;8.82;;;4.60;99.90;;;;;;5136759;27;20042;-68
2024/01/25 04:28:50;;;;;;;28.90;8.23;;;4.60;99.90;;;;;;5136899;27;20049;-70
2024/01/25 04:31:17;;;;;;;41.22;10.35;;;4.50;99.90;;;;;;5137190;27;20050;-70
2024/01/25 04:33:44;;;;;;;32.80;9.43;;;4.60;99.90;;;;;;5136492;27;20050;-70
2024/01/25 04:36:10;;;;;;;39.67;10.48;;;4.60;99.90;;;;;;5136888;27;20518;-69
2024/01/25 04:38:38;;;;;;;44.75;9.70;;;4.50;99.90;;;;;;5136977;27;20039;-69
2024/01/25 04:41:06;;;;;;;36.95;8.18;;;4.50;99.90;;;;;;5136332;27;20076;-69
2024/01/25 04:43:36;;;;;;;36.97;9.05;;;4.50;99.90;;;;;;5136978;27;20099;-71
2024/01/25 04:46:03;;;;;;;46.15;9.15;;;4.40;99.90;;;;;;5136414;27;20085;-71
2024/01/25 04:48:30;;;;;;;40.78;9.15;;;4.40;99.90;;;;;;5135474;27;20559;-67
2024/01/25 04:50:58;;;;;;;45.95;10.23;;;4.40;99.90;;;;;;5111444;27;20051;-69
2024/01/25 04:53:25;;;;;;;31.42;9.32;;;4.70;99.90;;;;;;5115465;27;20064;-69
2024/01/25 04:55:52;;;;;;;40.20;8.90;;;4.60;99.90;;;;;;5116155;27;20101;-69
2024/01/25 04:58:20;;;;;;;31.85;9.00;;;4.60;99.90;;;;;;5115282;27;20393;-69
2024/01/25 05:00:47;;;;;;;31.15;9.50;;;4.50;99.90;;;;;;5113322;27;20039;-69
2024/01/25 05:03:14;;;;;;;37.83;8.32;;;4.50;99.90;;;;;;5132709;27;20055;-69
2024/01/25 05:05:41;;;;;;;43.55;9.73;;;4.50;99.90;;;;;;5114809;27;20051;-69
2024/01/25 05:08:08;;;;;;;35.35;8.68;;;4.40;99.90;;;;;;5103444;27;20043;-69
2024/01/25 05:10:34;;;;;;;34.13;10.27;;;4.40;99.90;;;;;;5108117;27;20043;-69
2024/01/25 05:13:01;;;;;;;32.00;8.85;;;4.30;99.90;;;;;;5106700;27;20035;-69
2024/01/25 05:15:30;;;;;;;38.67;8.45;;;4.30;99.90;;;;;;5107964;27;20056;-69
2024/01/25 05:17:56;;;;;;;39.95;8.50;;;4.40;99.90;;;;;;5111552;27;20055;-69
2024/01/25 05:20:28;;;;;;;45.97;8.90;;;4.40;99.90;;;;;;5115652;27;20051;-69
2024/01/25 05:22:55;;;;;;;39.58;9.05;;;4.40;99.90;;;;;;5105901;27;20414;-69
2024/01/25 05:25:22;;;;;;;39.97;9.20;;;4.30;99.90;;;;;;5113479;27;20043;-69
2024/01/25 05:27:49;;;;;;;42.45;9.25;;;4.30;99.90;;;;;;5104152;27;20059;-70
2024/01/25 05:30:17;;;;;;;34.40;8.38;;;4.20;99.90;;;;;;5106950;27;20112;-69
2024/01/25 05:32:45;;;;;;;38.25;10.35;;;4.20;99.90;;;;;;5109181;27;20047;-69
2024/01/25 05:35:13;;;;;;;38.28;10.52;;;4.30;99.90;;;;;;5108503;27;20057;-68
2024/01/25 05:37:40;;;;;;;38.45;10.05;;;4.20;99.90;;;;;;5127409;27;20406;-68
2024/01/25 05:40:09;;;;;;;57.55;10.48;;;4.20;99.90;;;;;;5113144;27;20521;-68
2024/01/25 05:42:36;;;;;;;36.40;9.48;;;4.20;99.90;;;;;;5120432;27;20054;-67
2024/01/25 05:45:03;;;;;;;32.95;9.98;;;4.20;99.90;;;;;;5115459;27;20103;-68
2024/01/25 05:47:30;;;;;;;31.77;8.52;;;4.20;99.90;;;;;;5115890;27;20092;-68
2024/01/25 05:49:58;;;;;;;43.72;9.30;;;4.10;99.90;;;;;;5109846;27;20088;-69
2024/01/25 05:52:26;;;;;;;37.17;9.63;;;4.10;99.90;;;;;;5108696;27;20564;-68
2024/01/25 05:54:53;;;;;;;40.10;9.40;;;4.10;99.90;;;;;;5113797;27;20495;-69
2024/01/25 05:57:20;;;;;;;34.70;8.98;;;4.00;99.90;;;;;;5133252;27;20043;-68
2024/01/25 05:59:47;;;;;;;34.78;10.20;;;4.00;99.90;;;;;;5109301;27;20050;-69
2024/01/25 06:02:14;;;;;;;44.83;10.70;;;4.00;99.90;;;;;;5113537;27;20222;-70
2024/01/25 06:04:41;;;;;;;39.92;9.63;;;4.10;99.90;;;;;;5133181;27;20088;-70
2024/01/25 06:07:09;;;;;;;44.95;9.93;;;4.00;99.90;;;;;;5114187;27;20054;-70
2024/01/25 06:09:36;;;;;;;40.00;10.25;;;4.10;99.90;;;;;;5108401;27;20047;-69
2024/01/25 06:12:04;;;;;;;35.08;9.68;;;4.00;99.90;;;;;;5112258;27;20050;-68
2024/01/25 06:14:31;;;;;;;37.80;10.70;;;4.00;99.90;;;;;;5110593;27;20050;-68
2024/01/25 06:16:58;;;;;;;39.38;10.50;;;4.10;99.90;;;;;;5105605;27;20087;-68
2024/01/25 06:19:25;;;;;;;49.92;10.27;;;4.00;99.90;;;;;;5108866;27;20035;-70
2024/01/25 06:21:51;;;;;;;36.85;9.85;;;4.00;99.90;;;;;;5108446;27;20043;-69
2024/01/25 06:24:20;;;;;;;35.33;8.35;;;4.00;99.90;;;;;;5108467;27;20092;-68
2024/01/25 06:26:47;;;;;;;35.90;9.18;;;3.90;99.90;;;;;;5108964;27;20051;-69
2024/01/25 06:29:14;;;;;;;35.88;10.70;;;3.90;99.90;;;;;;5114332;27;20050;-69
2024/01/25 06:31:43;;;;;;;38.80;8.30;;;3.80;99.90;;;;;;5107843;27;20472;-69
2024/01/25 06:34:10;;;;;;;39.33;9.25;;;3.80;99.90;;;;;;5113886;27;20122;-68
2024/01/25 06:36:37;;;;;;;35.72;8.73;;;3.70;99.90;;;;;;5095839;27;20059;-69
2024/01/25 06:39:05;;;;;;;35.58;8.48;;;3.70;99.90;;;;;;5096006;27;20101;-68
2024/01/25 06:41:33;;;;;;;37.75;8.85;;;3.20;99.90;;;;;;5114063;27;20055;-69
2024/01/25 06:44:01;;;;;;;42.22;8.93;;;3.50;99.90;;;;;;5112961;27;20043;-68
2024/01/25 06:46:28;;;;;;;34.45;8.73;;;3.50;99.90;;;;;;5095207;27;20093;-67
2024/01/25 06:48:55;;;;;;;37.60;8.90;;;3.50;99.90;;;;;;5108833;27;20099;-69
2024/01/25 06:51:21;;;;;;;29.98;8.65;;;3.40;99.90;;;;;;5114418;27;20103;-68
2024/01/25 06:53:48;;;;;;;38.83;9.15;;;3.40;99.90;;;;;;5133034;27;20506;-68
2024/01/25 06:56:15;;;;;;;39.55;10.00;;;3.40;99.90;;;;;;5134113;27;20054;-69
2024/01/25 06:58:43;;;;;;;37.28;8.77;;;3.40;99.90;;;;;;5133353;27;20039;-68
2024/01/25 07:01:11;;;;;;;34.13;8.45;;;3.40;99.90;;;;;;5120036;27;20103;-69
2024/01/25 07:03:38;;;;;;;35.45;8.80;;;3.40;99.90;;;;;;5134176;27;20043;-70
2024/01/25 07:06:05;;;;;;;43.15;10.00;;;3.40;99.90;;;;;;5133987;27;20051;-68
2024/01/25 07:08:32;;;;;;;34.22;9.57;;;3.40;99.90;;;;;;5133447;27;20099;-69
2024/01/25 07:11:01;;;;;;;41.83;10.60;;;3.40;99.90;;;;;;5133531;27;20050;-69
2024/01/25 07:13:28;;;;;;;48.08;10.32;;;3.40;99.90;;;;;;5131147;27;20035;-69
2024/01/25 07:15:56;;;;;;;31.75;9.23;;;3.40;99.90;;;;;;5131796;27;20099;-68
2024/01/25 07:18:24;;;;;;;38.05;8.80;;;3.40;99.90;;;;;;5133147;27;20050;-69
2024/01/25 07:20:51;;;;;;;38.90;9.77;;;3.50;99.90;;;;;;5132826;27;20107;-69
2024/01/25 07:23:18;;;;;;;47.22;8.95;;;3.40;99.90;;;;;;5133924;27;20095;-68
2024/01/25 07:25:45;;;;;;;49.60;9.38;;;3.40;99.90;;;;;;5132634;27;20043;-69
2024/01/25 07:28:13;;;;;;;39.60;8.43;;;3.40;99.90;;;;;;5133557;27;20058;-69
2024/01/25 07:30:40;;;;;;;38.58;9.60;;;3.90;99.90;;;;;;5130544;27;20566;-69
2024/01/25 07:33:08;;;;;;;27.85;8.70;;;3.40;99.90;;;;;;5113254;28;20036;-70
2024/01/25 07:35:35;;;;;;;33.25;9.20;;;3.40;99.90;;;;;;5112492;27;20063;-69
2024/01/25 07:38:02;;;;;;;42.08;9.13;;;3.40;99.90;;;;;;5114814;28;20054;-69
2024/01/25 07:40:29;;;;;;;41.63;8.75;;;3.40;99.90;;;;;;5114042;28;20394;-70
2024/01/25 07:42:55;;;;;;;44.20;9.30;;;3.40;99.90;;;;;;5112920;28;20047;-70
2024/01/25 07:45:22;;;;;;;40.28;10.63;;;3.50;99.90;;;;;;5135060;27;20051;-68
2024/01/25 07:47:49;;;;;;;37.20;9.82;;;3.50;99.90;;;;;;5114271;27;20047;-69
2024/01/25 07:50:17;;;;;;;38.58;10.00;;;3.60;99.90;;;;;;5117639;27;20051;-70
2024/01/25 07:52:47;;;;;;;40.25;10.38;;;3.60;99.90;;;;;;5117209;27;20558;-70
2024/01/25 07:55:14;;;;;;;33.40;9.10;;;3.70;99.90;;;;;;5117929;27;20051;-70
2024/01/25 07:57:41;;;;;;;40.47;10.27;;;3.80;99.90;;;;;;5115048;27;20043;-69
2024/01/25 08:00:09;;;;;;;37.75;9.30;;;3.80;99.90;;;;;;5131116;27;20058;-69
2024/01/25 08:02:38;;;;;;;34.95;9.45;;;3.90;99.90;;;;;;5116996;27;20039;-69
2024/01/25 08:05:05;;;;;;;41.08;9.50;;;4.00;99.90;;;;;;5116348;27;20412;-70
2024/01/25 08:07:34;;;;;;;50.85;10.13;;;4.00;99.90;;;;;;5117221;27;20398;-69
2024/01/25 08:10:01;;;;;;;33.13;9.40;;;4.10;99.90;;;;;;5114984;27;20043;-69
2024/01/25 08:12:27;;;;;;;41.40;8.20;;;4.10;99.90;;;;;;5116726;27;20428;-69
2024/01/25 08:14:54;;;;;;;38.60;9.20;;;4.20;99.90;;;;;;5117404;27;20047;-69
2024/01/25 08:17:21;;;;;;;38.38;10.30;;;4.30;99.90;;;;;;5098136;27;20044;-70
2024/01/25 08:19:48;;;;;;;35.17;9.13;;;4.30;99.90;;;;;;5099128;27;20059;-69
2024/01/25 08:22:15;;;;;;;45.33;10.05;;;4.30;99.90;;;;;;5117254;27;20047;-70
2024/01/25 08:24:43;;;;;;;45.80;10.70;;;4.30;99.90;;;;;;5116938;27;20099;-69
2024/01/25 08:27:10;;;;;;;44.10;10.25;;;4.40;99.90;;;;;;5117504;27;20055;-69
2024/01/25 08:29:37;;;;;;;39.25;8.88;;;4.50;99.90;;;;;;5116665;27;20050;-69
2024/01/25 08:32:05;;;;;;;31.35;9.68;;;4.50;99.90;;;;;;5116642;27;20043;-68
2024/01/25 08:34:32;;;;;;;35.55;8.88;;;4.60;99.90;;;;;;5116664;27;20547;-69
2024/01/25 08:36:58;;;;;;;41.25;9.18;;;4.70;99.90;;;;;;5099478;27;20078;-69
2024/01/25 08:39:25;;;;;;;40.67;9.73;;;4.80;99.90;;;;;;5132328;27;20046;-69
2024/01/25 08:41:54;;;;;;;40.78;9.63;;;4.80;99.90;;;;;;5110302;27;20046;-69
2024/01/25 08:44:20;;;;;;;43.35;10.60;;;4.80;99.90;;;;;;5115056;27;20035;-69
2024/01/25 08:46:47;;;;;;;39.33;9.40;;;4.90;99.90;;;;;;5116648;27;20100;-69
2024/01/25 08:49:14;;;;;;;39.08;9.55;;;4.90;99.90;;;;;;5103468;27;20719;-69
2024/01/25 08:51:41;;;;;;;33.38;8.50;;;4.90;99.90;;;;;;5131143;27;20482;-68
2024/01/25 08:54:08;;;;;;;41.22;10.60;;;4.90;99.90;;;;;;5108521;27;20070;-67
2024/01/25 08:56:37;;;;;;;40.85;10.85;;;5.00;99.90;;;;;;5119522;27;20129;-69
2024/01/25 08:59:05;;;;;;;32.42;9.23;;;5.00;99.90;;;;;;5116513;27;20177;-69
2024/01/25 09:01:33;;;;;;;34.47;8.38;;;5.10;99.90;;;;;;5116592;27;20118;-69
2024/01/25 09:04:02;;;;;;;37.83;10.85;;;5.10;99.90;;;;;;5097763;27;20051;-69
2024/01/25 09:06:30;;;;;;;43.03;9.68;;;5.20;99.90;;;;;;5111082;27;20440;-70
2024/01/25 09:08:57;;;;;;;33.30;9.18;;;5.30;99.90;;;;;;5116068;27;20043;-70
2024/01/25 09:11:24;;;;;;;37.63;9.40;;;5.40;99.90;;;;;;5116036;27;20142;-69
2024/01/25 09:13:49;;;;;;;33.80;8.35;;;5.70;99.90;;;;;;5115546;27;20039;-69
2024/01/25 09:16:18;;;;;;;41.88;10.20;;;5.90;99.90;;;;;;5134174;27;20042;-69
2024/01/25 09:18:45;;;;;;;37.80;8.27;;;6.10;99.90;;;;;;5115480;27;20096;-69
2024/01/25 09:21:12;;;;;;;44.13;9.07;;;6.30;99.90;;;;;;5114854;27;20039;-69
2024/01/25 09:23:39;;;;;;;31.25;8.02;;;6.50;99.90;;;;;;5112772;27;20093;-69
2024/01/25 09:26:05;;;;;;;39.28;10.55;;;6.70;99.90;;;;;;5114192;27;20100;-70
2024/01/25 09:28:32;;;;;;;31.10;8.85;;;6.90;99.90;;;;;;5114995;27;20035;-70
2024/01/25 09:30:59;;;;;;;36.17;10.05;;;7.10;99.90;;;;;;5133569;27;20051;-70
2024/01/25 09:33:27;;;;;;;31.20;9.20;;;7.10;99.90;;;;;;5115912;27;20104;-70
2024/01/25 09:35:54;;;;;;;32.65;8.77;;;7.00;99.90;;;;;;5097450;27;20052;-70
2024/01/25 09:38:21;;;;;;;34.88;8.07;;;7.10;99.90;;;;;;5097367;27;20059;-70
2024/01/25 09:40:48;;;;;;;33.95;9.30;;;7.10;99.90;;;;;;5098518;27;20082;-70
2024/01/25 09:43:15;;;;;;;33.80;8.70;;;7.10;99.90;;;;;;5129902;27;20489;-70
2024/01/25 09:45:43;;;;;;;42.55;10.73;;;7.10;99.90;;;;;;5134980;27;20054;-70
2024/01/25 09:48:10;;;;;;;28.92;7.72;;;7.00;99.90;;;;;;5113435;27;20096;-69
2024/01/25 09:50:38;;;;;;;34.92;9.38;;;7.20;99.90;;;;;;5101761;27;20043;-70
2024/01/25 09:53:07;;;;;;;29.00;7.53;;;7.50;99.90;;;;;;5134014;27;20054;-70
2024/01/25 09:55:38;;;;;;;38.58;10.40;;;7.80;99.90;;;;;;5114886;27;20055;-69
2024/01/25 09:58:07;;;;;;;29.55;8.80;;;7.90;99.90;;;;;;5097018;27;20054;-70
2024/01/25 10:00:34;;;;;;;46.17;10.20;;;8.60;99.90;;;;;;5098327;27;20130;-70
2024/01/25 10:03:01;;;;;;;35.00;8.52;;;9.20;99.90;;;;;;5096135;27;20047;-69
2024/01/25 10:05:28;;;;;;;28.10;8.70;;;9.80;99.90;;;;;;5110035;27;20047;-69
2024/01/25 10:08:01;;;;;;;29.00;8.70;;;10.60;99.90;;;;;;5115475;27;20047;-69
2024/01/25 10:10:28;;;;;;;32.67;8.23;;;11.30;99.90;;;;;;5096224;27;20047;-70
2024/01/25 10:12:56;;;;;;;30.02;8.02;;;11.90;99.90;;;;;;5105214;27;20076;-70
2024/01/25 10:15:24;;;;;;;28.08;7.68;;;12.60;99.90;;;;;;5112777;27;20051;-69
2024/01/25 10:17:52;;;;;;;27.95;7.32;;;13.20;99.90;;;;;;5096358;27;20093;-70
2024/01/25 10:20:20;;;;;;;28.95;8.43;;;13.50;99.90;;;;;;5097761;27;20112;-70
2024/01/25 10:22:47;;;;;;;25.55;8.48;;;13.00;99.90;;;;;;5095944;27;20112;-70
2024/01/25 10:25:16;;;;;;;28.33;8.25;;;13.40;99.90;;;;;;5096908;27;20052;-70
2024/01/25 10:27:42;;;;;;;22.95;8.20;;;13.10;99.90;;;;;;5112885;27;20051;-70
2024/01/25 10:30:11;;;;;;;23.50;8.27;;;12.50;99.90;;;;;;5097065;27;20403;-70
2024/01/25 10:32:40;;;;;;;32.47;9.00;;;11.80;99.90;;;;;;5114486;27;20462;-70
2024/01/25 10:35:09;;;;;;;32.25;8.05;;;11.70;99.90;;;;;;5098027;27;20055;-70
2024/01/25 10:37:37;;;;;;;31.95;9.10;;;10.90;99.90;;;;;;5096334;27;20051;-70
2024/01/25 10:40:05;;;;;;;24.60;7.88;;;11.00;99.90;;;;;;5112405;27;20084;-70
2024/01/25 10:42:33;;;;;;;35.03;8.02;;;10.60;99.90;;;;;;5114739;27;20130;-69
2024/01/25 10:45:00;;;;;;;24.98;7.20;;;11.10;99.90;;;;;;5096735;27;20457;-69
2024/01/25 10:47:30;;;;;;;24.38;7.80;;;11.70;99.90;;;;;;5103696;27;20039;-70
2024/01/25 10:49:58;;;;;;;35.83;9.35;;;12.80;99.90;;;;;;5114184;27;20131;-70
2024/01/25 10:52:25;;;;;;;26.80;7.65;;;14.10;99.90;;;;;;5113739;27;20418;-70
2024/01/25 10:54:53;;;;;;;27.85;7.70;;;14.30;99.90;;;;;;5113993;27;20082;-69
2024/01/25 10:57:20;;;;;;;29.13;7.82;;;14.60;99.90;;;;;;5114695;27;20047;-71
2024/01/25 10:59:48;;;;;;;32.67;8.00;;;15.10;99.90;;;;;;5095136;27;21438;-70
2024/01/25 11:02:15;;;;;;;22.95;7.15;;;15.60;99.90;;;;;;5111264;27;20104;-70
2024/01/25 11:04:52;;;;;;;27.80;7.95;;;15.80;99.90;;;;;;5110184;27;20047;-70
2024/01/25 11:07:19;;;;;;;26.20;7.50;;;15.30;99.90;;;;;;5107071;27;20055;-71
2024/01/25 11:09:48;;;;;;;27.25;8.32;;;15.60;99.90;;;;;;5107797;27;20051;-71
2024/01/25 11:12:15;;;;;;;24.90;7.30;;;15.90;99.90;;;;;;5106527;27;20051;-70
2024/01/25 11:14:42;;;;;;;30.85;8.05;;;15.50;99.90;;;;;;5110738;28;20039;-71
2024/01/25 11:17:32;;;;;;;24.95;7.63;;;15.00;99.90;;;;;;5112381;28;20040;-70
2024/01/25 11:20:01;;;;;;;;;;;14.90;99.90;;;;;;5111197;28;20046;-71
2024/01/25 11:22:35;;;;;;;27.20;8.13;;;14.10;99.90;;;;;;5101149;28;19919;-71
2024/01/25 11:25:13;;;;;;;28.70;7.90;;;14.10;99.90;;;;;;5106366;28;20104;-71
2024/01/25 11:27:40;;;;;;;24.73;7.32;;;14.40;99.90;;;;;;5112946;28;20051;-71
2024/01/25 11:30:11;;;;;;;23.38;8.07;;;14.40;99.90;;;;;;5108175;27;20444;-72
2024/01/25 11:32:40;;;;;;;30.23;7.78;;;14.60;99.90;;;;;;5111303;28;20483;-71
2024/01/25 11:35:10;;;;;;;21.77;7.40;;;14.40;99.90;;;;;;5109026;27;20043;-71
2024/01/25 11:37:38;;;;;;;27.83;8.57;;;12.90;99.90;;;;;;5113496;28;20046;-71
2024/01/25 11:40:06;;;;;;;20.98;7.10;;;13.10;99.90;;;;;;5112137;28;20043;-70
2024/01/25 11:42:33;;;;;;;20.65;7.03;;;13.60;99.90;;;;;;5107076;28;20116;-70
2024/01/25 11:45:00;;;;;;;34.55;9.70;;;13.60;99.90;;;;;;5111145;27;20551;-71
2024/01/25 11:47:27;;;;;;;26.90;8.05;;;13.00;99.90;;;;;;5094436;27;20052;-70
2024/01/25 11:49:55;;;;;;;22.02;6.70;;;12.00;99.90;;;;;;5109847;28;20058;-70
2024/01/25 11:52:22;;;;;;;29.27;8.48;;;11.60;99.90;;;;;;5097627;27;20093;-70
2024/01/25 11:54:49;;;;;;;22.10;7.72;;;10.80;99.90;;;;;;5096887;27;20040;-70
2024/01/25 11:57:16;;;;;;;21.42;7.82;;;10.50;99.90;;;;;;5093853;27;20055;-70
2024/01/25 11:59:45;;;;;;;25.90;8.27;;;10.50;99.90;;;;;;5096573;27;20412;-69
2024/01/25 12:02:12;;;;;;;25.55;8.43;;;10.20;99.90;;;;;;5096384;27;20062;-69
2024/01/25 12:04:40;;;;;;;29.20;8.93;;;10.20;99.90;;;;;;5095856;27;20054;-70
2024/01/25 12:07:09;;;;;;;26.35;7.70;;;10.10;99.90;;;;;;5096592;27;20070;-70
2024/01/25 12:09:35;;;;;;;27.02;8.40;;;9.90;99.90;;;;;;5094994;27;20051;-69
2024/01/25 12:12:03;;;;;;;29.50;7.55;;;9.90;99.90;;;;;;5096151;27;20044;-70
2024/01/25 12:14:30;;;;;;;25.60;7.93;;;10.20;99.90;;;;;;5096843;27;20511;-69
2024/01/25 12:16:57;;;;;;;30.08;8.68;;;9.90;99.90;;;;;;5094473;27;20048;-71
2024/01/25 12:19:24;;;;;;;26.83;7.75;;;9.80;99.90;;;;;;5096547;27;20048;-69
2024/01/25 12:21:52;;;;;;;28.52;7.53;;;9.70;99.90;;;;;;5095151;27;20047;-69
2024/01/25 12:24:22;;;;;;;25.35;7.80;;;9.80;99.90;;;;;;5095335;27;20127;-70
2024/01/25 12:26:49;;;;;;;31.52;8.07;;;9.90;99.90;;;;;;5113713;28;20566;-70
2024/01/25 12:29:17;;;;;;;27.67;7.80;;;9.80;99.90;;;;;;5095148;27;20109;-71
2024/01/25 12:31:44;;;;;;;31.65;7.45;;;10.30;99.90;;;;;;5097519;27;20053;-70
2024/01/25 12:34:15;;;;;;;26.08;8.45;;;10.30;99.90;;;;;;5101874;27;20050;-70
2024/01/25 12:36:42;;;;;;;22.42;7.28;;;10.00;99.90;;;;;;5099331;27;20071;-70
2024/01/25 12:39:09;;;;;;;23.25;7.75;;;10.30;99.90;;;;;;5099835;27;20048;-70
2024/01/25 12:41:38;;;;;;;20.77;6.65;;;10.20;99.90;;;;;;5106159;27;20739;-71
2024/01/25 12:44:05;;;;;;;36.88;7.47;;;10.30;99.90;;;;;;5136801;27;20414;-70